Tugela — 9HA2292 — position and weather

sailwx.info

Track history (hours):
 
Tides and Currents Weather Stations Pressure Air Temp Water Temp Dewpoint Dewpoint Depression Visibility Wind Speed Wind Dir Waves Ship Positions

Tugela

Last reported at 2018-Apr-19 06:28 UTC. Time now 2018-Apr-19 15:36 UTC.
Position N 36°50' W 000°05'.

Length 229 m; draft 9.7 m.

Type: Cargo ship. MMSI: 248264000.

Date/timePositionNaut miles runAvg speedWind from/ knotsBaromVisibWave heightAir tempDewpointWater temp
2018-Apr-19 06:28N 36°50' W 000°05'1016.0
2018-Apr-19 05:52N 36°53' E 000°07'716.1
2018-Apr-19 05:26N 36°54' E 000°16'2015.7
2018-Apr-19 04:07N 36°59' E 000°41'56115.6
2018-Apr-17 16:11N 36°58' E 012°23'615.6
2018-Apr-17 15:49N 36°56' E 012°29'3315.3
2018-Apr-17 13:41N 36°44' E 013°07'315.5
2018-Apr-17 13:30N 36°43' E 013°11'915.6
2018-Apr-17 12:57N 36°40' E 013°21'715.5
2018-Apr-17 12:30N 36°39' E 013°29'815.5
2018-Apr-17 12:00N 36°36' E 013°38'815.5
2018-Apr-17 11:30N 36°34' E 013°48'815.3
2018-Apr-17 11:00N 36°31' E 013°56'715.3
2018-Apr-17 10:31N 36°29' E 014°05'815.5
2018-Apr-17 10:00N 36°26' E 014°14'815.4
2018-Apr-17 09:30N 36°24' E 014°24'815.5
2018-Apr-17 09:00N 36°21' E 014°33'815.6
2018-Apr-17 08:30N 36°20' E 014°42'815.3
2018-Apr-17 08:00N 36°20' E 014°52'1020.1
2018-Apr-17 07:30N 36°20' E 015°04'611.9
2018-Apr-17 06:59N 36°21' E 015°12'613.2
2018-Apr-17 06:30N 36°21' E 015°20'1016.1
2018-Apr-17 05:55N 36°21' E 015°31'614.2
2018-Apr-17 05:30N 36°21' E 015°39'40914.7
2018-Apr-16 01:36N 37°23' E 024°04'316.4
2018-Apr-16 01:25N 37°26' E 024°06'15516.2
2018-Apr-15 15:54N 39°41' E 025°41'716.5
2018-Apr-15 15:29N 39°47' E 025°45'25 0.7
2018-Apr-14 03:49N 40°01' E 026°13'6 9.5
2018-Apr-14 03:11N 39°60' E 026°05'510.0
2018-Apr-14 02:44N 39°58' E 025°60'210.9
2018-Apr-14 02:30N 39°56' E 025°57'813.9
2018-Apr-14 01:56N 39°51' E 025°50'4214.8
2018-Apr-13 23:06N 39°13' E 025°25'214.7
2018-Apr-13 22:58N 39°12' E 025°24'2714.8
2018-Apr-13 21:06N 38°47' E 025°08'214.6
2018-Apr-13 21:00N 38°46' E 025°07'3514.6
2018-Apr-13 18:37N 38°15' E 024°47'214.7
2018-Apr-13 18:31N 38°13' E 024°47'5413.5
2018-Apr-13 14:32N 37°34' E 024°00'014.1
2018-Apr-13 14:30N 37°34' E 023°60'713.9
2018-Apr-13 14:00N 37°36' E 023°51'714.4
2018-Apr-13 13:30N 37°39' E 023°43'816.0
2018-Apr-13 13:00N 37°46' E 023°38'815.9
2018-Apr-13 12:30N 37°54' E 023°37'3 6.7
2018-Apr-13 12:00N 37°57' E 023°36'1 1.3
2018-Apr-13 11:29N 37°58' E 023°36'0 0.0
2018-Apr-13 10:56N 37°58' E 023°36'0 0.0
2018-Apr-13 10:29N 37°58' E 023°36'0 0.0
2018-Apr-13 09:59N 37°58' E 023°36'0 0.0
2018-Apr-13 09:29N 37°58' E 023°36'0 0.0
2018-Apr-13 08:59N 37°58' E 023°36'0 0.0
2018-Apr-13 08:29N 37°58' E 023°36'0 0.0
2018-Apr-13 07:59N 37°58' E 023°36'0 0.0
2018-Apr-13 07:29N 37°58' E 023°36'0 0.0
2018-Apr-13 06:59N 37°58' E 023°36'0 0.0
2018-Apr-13 06:29N 37°58' E 023°36'0 0.0
2018-Apr-13 05:59N 37°58' E 023°36'0 0.0
2018-Apr-13 05:23N 37°58' E 023°36'0 0.0
2018-Apr-13 04:59N 37°58' E 023°36'0 0.3
2018-Apr-13 04:30N 37°58' E 023°36'3 5.8
2018-Apr-13 04:00N 37°55' E 023°36'1 2.6
2018-Apr-13 03:30N 37°53' E 023°36'2 3.8
2018-Apr-13 03:00N 37°54' E 023°38'3 5.1
2018-Apr-13 02:30N 37°52' E 023°39'510.9
2018-Apr-13 02:00N 37°47' E 023°42'815.5
2018-Apr-13 01:30N 37°40' E 023°45'611.5
2018-Apr-13 01:00N 37°34' E 023°48'714.6
2018-Apr-13 00:30N 37°27' E 023°50'814.5
2018-Apr-12 23:59N 37°20' E 023°54'37915.8
2018-Apr-11 23:57N 33°13' E 029°46'3516.1
2018-Apr-11 21:46N 32°52' E 030°19'916.4
2018-Apr-11 21:14N 32°46' E 030°27'2116.1
2018-Apr-11 19:55N 32°33' E 030°47'  
Track history (hours):
 
Tides and Currents Weather Stations Pressure Air Temp Water Temp Dewpoint Dewpoint Depression Visibility Wind Speed Wind Dir Waves Ship Positions

Tugela

Last reported at 2018-Apr-19 06:28 UTC. Time now 2018-Apr-19 15:36 UTC.
Position N 36°50' W 000°05'.

Length 229 m; draft 9.7 m.

Type: Cargo ship. MMSI: 248264000.

Date/timePositionNaut miles runAvg speedWind from/ knotsBaromVisibWave heightAir tempDewpointWater temp
2018-Apr-19 06:28N 36°50' W 000°05'1016.0
2018-Apr-19 05:52N 36°53' E 000°07'716.1
2018-Apr-19 05:26N 36°54' E 000°16'2015.7
2018-Apr-19 04:07N 36°59' E 000°41'56115.6
2018-Apr-17 16:11N 36°58' E 012°23'615.6
2018-Apr-17 15:49N 36°56' E 012°29'3315.3
2018-Apr-17 13:41N 36°44' E 013°07'315.5
2018-Apr-17 13:30N 36°43' E 013°11'915.6
2018-Apr-17 12:57N 36°40' E 013°21'715.5
2018-Apr-17 12:30N 36°39' E 013°29'815.5
2018-Apr-17 12:00N 36°36' E 013°38'815.5
2018-Apr-17 11:30N 36°34' E 013°48'815.3
2018-Apr-17 11:00N 36°31' E 013°56'715.3
2018-Apr-17 10:31N 36°29' E 014°05'815.5
2018-Apr-17 10:00N 36°26' E 014°14'815.4
2018-Apr-17 09:30N 36°24' E 014°24'815.5
2018-Apr-17 09:00N 36°21' E 014°33'815.6
2018-Apr-17 08:30N 36°20' E 014°42'815.3
2018-Apr-17 08:00N 36°20' E 014°52'1020.1
2018-Apr-17 07:30N 36°20' E 015°04'611.9
2018-Apr-17 06:59N 36°21' E 015°12'613.2
2018-Apr-17 06:30N 36°21' E 015°20'1016.1
2018-Apr-17 05:55N 36°21' E 015°31'614.2
2018-Apr-17 05:30N 36°21' E 015°39'40914.7
2018-Apr-16 01:36N 37°23' E 024°04'316.4
2018-Apr-16 01:25N 37°26' E 024°06'15516.2
2018-Apr-15 15:54N 39°41' E 025°41'716.5
2018-Apr-15 15:29N 39°47' E 025°45'25 0.7
2018-Apr-14 03:49N 40°01' E 026°13'6 9.5
2018-Apr-14 03:11N 39°60' E 026°05'510.0
2018-Apr-14 02:44N 39°58' E 025°60'210.9
2018-Apr-14 02:30N 39°56' E 025°57'813.9
2018-Apr-14 01:56N 39°51' E 025°50'4214.8
2018-Apr-13 23:06N 39°13' E 025°25'214.7
2018-Apr-13 22:58N 39°12' E 025°24'2714.8
2018-Apr-13 21:06N 38°47' E 025°08'214.6
2018-Apr-13 21:00N 38°46' E 025°07'3514.6
2018-Apr-13 18:37N 38°15' E 024°47'214.7
2018-Apr-13 18:31N 38°13' E 024°47'5413.5
2018-Apr-13 14:32N 37°34' E 024°00'014.1
2018-Apr-13 14:30N 37°34' E 023°60'713.9
2018-Apr-13 14:00N 37°36' E 023°51'714.4
2018-Apr-13 13:30N 37°39' E 023°43'816.0
2018-Apr-13 13:00N 37°46' E 023°38'815.9
2018-Apr-13 12:30N 37°54' E 023°37'3 6.7
2018-Apr-13 12:00N 37°57' E 023°36'1 1.3
2018-Apr-13 11:29N 37°58' E 023°36'0 0.0
2018-Apr-13 10:56N 37°58' E 023°36'0 0.0
2018-Apr-13 10:29N 37°58' E 023°36'0 0.0
2018-Apr-13 09:59N 37°58' E 023°36'0 0.0
2018-Apr-13 09:29N 37°58' E 023°36'0 0.0
2018-Apr-13 08:59N 37°58' E 023°36'0 0.0
2018-Apr-13 08:29N 37°58' E 023°36'0 0.0
2018-Apr-13 07:59N 37°58' E 023°36'0 0.0
2018-Apr-13 07:29N 37°58' E 023°36'0 0.0
2018-Apr-13 06:59N 37°58' E 023°36'0 0.0
2018-Apr-13 06:29N 37°58' E 023°36'0 0.0
2018-Apr-13 05:59N 37°58' E 023°36'0 0.0
2018-Apr-13 05:23N 37°58' E 023°36'0 0.0
2018-Apr-13 04:59N 37°58' E 023°36'0 0.3
2018-Apr-13 04:30N 37°58' E 023°36'3 5.8
2018-Apr-13 04:00N 37°55' E 023°36'1 2.6
2018-Apr-13 03:30N 37°53' E 023°36'2 3.8
2018-Apr-13 03:00N 37°54' E 023°38'3 5.1
2018-Apr-13 02:30N 37°52' E 023°39'510.9
2018-Apr-13 02:00N 37°47' E 023°42'815.5
2018-Apr-13 01:30N 37°40' E 023°45'611.5
2018-Apr-13 01:00N 37°34' E 023°48'714.6
2018-Apr-13 00:30N 37°27' E 023°50'814.5
2018-Apr-12 23:59N 37°20' E 023°54'37915.8
2018-Apr-11 23:57N 33°13' E 029°46'3516.1
2018-Apr-11 21:46N 32°52' E 030°19'916.4
2018-Apr-11 21:14N 32°46' E 030°27'2116.1
2018-Apr-11 19:55N 32°33' E 030°47'  

Dump ship's entire track history